sensor_id;sensor_type;location;lat;lon;timestamp;temperature;humidity
75719;DHT22;64340;48.534;-3.036;2023-12-29T00:01:57;19.40;62.20
75719;DHT22;64340;48.534;-3.036;2023-12-29T00:04:27;19.40;62.30
75719;DHT22;64340;48.534;-3.036;2023-12-29T00:06:53;19.40;62.30
75719;DHT22;64340;48.534;-3.036;2023-12-29T00:09:19;19.40;62.30
75719;DHT22;64340;48.534;-3.036;2023-12-29T00:11:51;19.40;62.30
75719;DHT22;64340;48.534;-3.036;2023-12-29T00:14:17;19.40;62.20
75719;DHT22;64340;48.534;-3.036;2023-12-29T00:16:43;19.30;62.30
75719;DHT22;64340;48.534;-3.036;2023-12-29T00:19:10;19.30;62.20
75719;DHT22;64340;48.534;-3.036;2023-12-29T00:21:36;19.30;62.20
75719;DHT22;64340;48.534;-3.036;2023-12-29T00:24:02;19.30;62.20
75719;DHT22;64340;48.534;-3.036;2023-12-29T00:26:28;19.30;62.30
75719;DHT22;64340;48.534;-3.036;2023-12-29T00:28:54;19.20;62.20
75719;DHT22;64340;48.534;-3.036;2023-12-29T00:31:21;19.20;62.20
75719;DHT22;64340;48.534;-3.036;2023-12-29T00:33:47;19.20;62.10
75719;DHT22;64340;48.534;-3.036;2023-12-29T00:36:16;19.20;62.20
75719;DHT22;64340;48.534;-3.036;2023-12-29T00:38:43;19.20;62.20
75719;DHT22;64340;48.534;-3.036;2023-12-29T00:41:09;19.20;62.20
75719;DHT22;64340;48.534;-3.036;2023-12-29T00:43:35;19.10;62.20
75719;DHT22;64340;48.534;-3.036;2023-12-29T00:46:02;19.10;62.20
75719;DHT22;64340;48.534;-3.036;2023-12-29T00:48:29;19.10;62.20
75719;DHT22;64340;48.534;-3.036;2023-12-29T00:50:54;19.10;62.20
75719;DHT22;64340;48.534;-3.036;2023-12-29T00:53:20;19.10;62.30
75719;DHT22;64340;48.534;-3.036;2023-12-29T00:55:46;19.10;62.40
75719;DHT22;64340;48.534;-3.036;2023-12-29T00:58:12;19.10;62.40
75719;DHT22;64340;48.534;-3.036;2023-12-29T01:00:38;19.00;62.30
75719;DHT22;64340;48.534;-3.036;2023-12-29T01:03:04;19.00;62.40
75719;DHT22;64340;48.534;-3.036;2023-12-29T01:05:30;19.00;62.40
75719;DHT22;64340;48.534;-3.036;2023-12-29T01:07:56;19.00;62.20
75719;DHT22;64340;48.534;-3.036;2023-12-29T01:10:21;18.90;62.20
75719;DHT22;64340;48.534;-3.036;2023-12-29T01:12:47;18.90;62.40
75719;DHT22;64340;48.534;-3.036;2023-12-29T01:15:13;18.90;62.30
75719;DHT22;64340;48.534;-3.036;2023-12-29T01:17:39;18.90;62.30
75719;DHT22;64340;48.534;-3.036;2023-12-29T01:20:08;18.90;62.30
75719;DHT22;64340;48.534;-3.036;2023-12-29T01:22:34;18.90;62.40
75719;DHT22;64340;48.534;-3.036;2023-12-29T01:25:00;18.90;62.40
75719;DHT22;64340;48.534;-3.036;2023-12-29T01:27:26;18.90;61.40
75719;DHT22;64340;48.534;-3.036;2023-12-29T01:29:52;18.80;62.10
75719;DHT22;64340;48.534;-3.036;2023-12-29T01:32:21;18.80;62.20
75719;DHT22;64340;48.534;-3.036;2023-12-29T01:34:47;18.80;62.30
75719;DHT22;64340;48.534;-3.036;2023-12-29T01:37:13;18.80;62.30
75719;DHT22;64340;48.534;-3.036;2023-12-29T01:39:39;18.80;62.40
75719;DHT22;64340;48.534;-3.036;2023-12-29T01:42:06;18.70;62.50
75719;DHT22;64340;48.534;-3.036;2023-12-29T01:44:32;18.70;62.40
75719;DHT22;64340;48.534;-3.036;2023-12-29T01:47:01;18.70;62.30
75719;DHT22;64340;48.534;-3.036;2023-12-29T01:49:29;18.60;62.40
75719;DHT22;64340;48.534;-3.036;2023-12-29T01:51:57;18.60;62.40
75719;DHT22;64340;48.534;-3.036;2023-12-29T01:54:25;18.60;62.40
75719;DHT22;64340;48.534;-3.036;2023-12-29T01:56:52;18.60;62.30
75719;DHT22;64340;48.534;-3.036;2023-12-29T01:59:21;18.60;62.50
75719;DHT22;64340;48.534;-3.036;2023-12-29T02:01:46;18.60;62.40
75719;DHT22;64340;48.534;-3.036;2023-12-29T02:04:13;18.60;62.30
75719;DHT22;64340;48.534;-3.036;2023-12-29T02:06:41;18.60;62.40
75719;DHT22;64340;48.534;-3.036;2023-12-29T02:09:07;18.60;62.40
75719;DHT22;64340;48.534;-3.036;2023-12-29T02:11:33;18.60;62.30
75719;DHT22;64340;48.534;-3.036;2023-12-29T02:13:59;18.60;62.40
75719;DHT22;64340;48.534;-3.036;2023-12-29T02:18:55;18.50;62.40
75719;DHT22;64340;48.534;-3.036;2023-12-29T02:21:25;18.50;62.30
75719;DHT22;64340;48.534;-3.036;2023-12-29T02:23:51;18.50;62.40
75719;DHT22;64340;48.534;-3.036;2023-12-29T02:26:20;18.50;62.40
75719;DHT22;64340;48.534;-3.036;2023-12-29T02:28:53;18.50;62.50
75719;DHT22;64340;48.534;-3.036;2023-12-29T02:31:24;18.50;62.40
75719;DHT22;64340;48.534;-3.036;2023-12-29T02:33:52;18.50;62.40
75719;DHT22;64340;48.534;-3.036;2023-12-29T02:36:19;18.40;62.50
75719;DHT22;64340;48.534;-3.036;2023-12-29T02:38:46;18.40;62.40
75719;DHT22;64340;48.534;-3.036;2023-12-29T02:41:12;18.40;62.50
75719;DHT22;64340;48.534;-3.036;2023-12-29T02:43:40;18.40;62.50
75719;DHT22;64340;48.534;-3.036;2023-12-29T02:46:06;18.40;62.50
75719;DHT22;64340;48.534;-3.036;2023-12-29T02:48:32;18.40;62.50
75719;DHT22;64340;48.534;-3.036;2023-12-29T02:50:58;18.40;62.50
75719;DHT22;64340;48.534;-3.036;2023-12-29T02:53:23;18.30;62.50
75719;DHT22;64340;48.534;-3.036;2023-12-29T02:55:49;18.30;62.40
75719;DHT22;64340;48.534;-3.036;2023-12-29T02:58:15;18.30;62.50
75719;DHT22;64340;48.534;-3.036;2023-12-29T03:00:40;18.30;62.50
75719;DHT22;64340;48.534;-3.036;2023-12-29T03:03:06;18.30;62.50
75719;DHT22;64340;48.534;-3.036;2023-12-29T03:05:32;18.30;62.50
75719;DHT22;64340;48.534;-3.036;2023-12-29T03:07:57;18.30;62.50
75719;DHT22;64340;48.534;-3.036;2023-12-29T03:10:23;18.20;62.50
75719;DHT22;64340;48.534;-3.036;2023-12-29T03:12:49;18.20;62.50
75719;DHT22;64340;48.534;-3.036;2023-12-29T03:15:15;18.20;62.50
75719;DHT22;64340;48.534;-3.036;2023-12-29T03:17:40;18.20;62.40
75719;DHT22;64340;48.534;-3.036;2023-12-29T03:20:07;18.20;62.50
75719;DHT22;64340;48.534;-3.036;2023-12-29T03:22:33;18.20;62.50
75719;DHT22;64340;48.534;-3.036;2023-12-29T03:24:59;18.20;62.50
75719;DHT22;64340;48.534;-3.036;2023-12-29T03:27:25;18.10;62.50
75719;DHT22;64340;48.534;-3.036;2023-12-29T03:29:50;18.10;62.50
75719;DHT22;64340;48.534;-3.036;2023-12-29T03:32:16;18.10;62.50
75719;DHT22;64340;48.534;-3.036;2023-12-29T03:34:42;18.10;62.50
75719;DHT22;64340;48.534;-3.036;2023-12-29T03:37:09;18.10;62.50
75719;DHT22;64340;48.534;-3.036;2023-12-29T03:39:35;18.10;62.50
75719;DHT22;64340;48.534;-3.036;2023-12-29T03:42:01;18.10;62.50
75719;DHT22;64340;48.534;-3.036;2023-12-29T03:44:27;18.10;62.50
75719;DHT22;64340;48.534;-3.036;2023-12-29T03:46:52;18.00;62.50
75719;DHT22;64340;48.534;-3.036;2023-12-29T03:49:18;18.00;62.50
75719;DHT22;64340;48.534;-3.036;2023-12-29T03:51:45;18.00;62.60
75719;DHT22;64340;48.534;-3.036;2023-12-29T03:54:11;18.00;62.60
75719;DHT22;64340;48.534;-3.036;2023-12-29T03:56:37;18.00;62.50
75719;DHT22;64340;48.534;-3.036;2023-12-29T03:59:03;18.00;62.60
75719;DHT22;64340;48.534;-3.036;2023-12-29T04:01:29;18.00;62.60
75719;DHT22;64340;48.534;-3.036;2023-12-29T04:03:54;18.00;62.60
75719;DHT22;64340;48.534;-3.036;2023-12-29T04:06:20;18.00;62.60
75719;DHT22;64340;48.534;-3.036;2023-12-29T04:08:46;18.00;62.60
75719;DHT22;64340;48.534;-3.036;2023-12-29T04:11:12;18.00;62.60
75719;DHT22;64340;48.534;-3.036;2023-12-29T04:13:37;18.00;62.60
75719;DHT22;64340;48.534;-3.036;2023-12-29T04:16:03;18.00;62.70
75719;DHT22;64340;48.534;-3.036;2023-12-29T04:18:29;18.00;62.70
75719;DHT22;64340;48.534;-3.036;2023-12-29T04:20:55;18.00;62.60
75719;DHT22;64340;48.534;-3.036;2023-12-29T04:23:21;18.00;62.70
75719;DHT22;64340;48.534;-3.036;2023-12-29T04:25:47;18.00;62.70
75719;DHT22;64340;48.534;-3.036;2023-12-29T04:28:12;18.00;62.70
75719;DHT22;64340;48.534;-3.036;2023-12-29T04:30:38;17.90;62.60
75719;DHT22;64340;48.534;-3.036;2023-12-29T04:33:04;18.00;62.70
75719;DHT22;64340;48.534;-3.036;2023-12-29T04:35:30;17.90;62.70
75719;DHT22;64340;48.534;-3.036;2023-12-29T04:37:56;17.90;62.70
75719;DHT22;64340;48.534;-3.036;2023-12-29T04:40:21;17.90;62.70
75719;DHT22;64340;48.534;-3.036;2023-12-29T04:42:47;17.80;62.70
75719;DHT22;64340;48.534;-3.036;2023-12-29T04:45:13;17.80;62.70
75719;DHT22;64340;48.534;-3.036;2023-12-29T04:47:38;17.80;62.80
75719;DHT22;64340;48.534;-3.036;2023-12-29T04:50:05;17.80;62.70
75719;DHT22;64340;48.534;-3.036;2023-12-29T04:52:31;17.80;62.70
75719;DHT22;64340;48.534;-3.036;2023-12-29T04:54:57;17.80;62.80
75719;DHT22;64340;48.534;-3.036;2023-12-29T04:57:23;17.80;62.70
75719;DHT22;64340;48.534;-3.036;2023-12-29T04:59:49;17.80;62.80
75719;DHT22;64340;48.534;-3.036;2023-12-29T05:02:15;17.80;62.70
75719;DHT22;64340;48.534;-3.036;2023-12-29T05:04:40;17.80;62.80
75719;DHT22;64340;48.534;-3.036;2023-12-29T05:07:09;17.80;62.80
75719;DHT22;64340;48.534;-3.036;2023-12-29T05:09:35;17.80;62.80
75719;DHT22;64340;48.534;-3.036;2023-12-29T05:12:01;17.80;62.90
75719;DHT22;64340;48.534;-3.036;2023-12-29T05:14:27;17.80;62.80
75719;DHT22;64340;48.534;-3.036;2023-12-29T05:16:52;17.80;62.80
75719;DHT22;64340;48.534;-3.036;2023-12-29T05:19:18;17.80;62.80
75719;DHT22;64340;48.534;-3.036;2023-12-29T05:21:44;17.80;62.80
75719;DHT22;64340;48.534;-3.036;2023-12-29T05:24:09;17.70;62.90
75719;DHT22;64340;48.534;-3.036;2023-12-29T05:26:35;17.70;62.90
75719;DHT22;64340;48.534;-3.036;2023-12-29T05:29:02;17.70;62.80
75719;DHT22;64340;48.534;-3.036;2023-12-29T05:31:28;17.70;62.80
75719;DHT22;64340;48.534;-3.036;2023-12-29T05:33:54;17.70;62.80
75719;DHT22;64340;48.534;-3.036;2023-12-29T05:36:20;17.70;62.80
75719;DHT22;64340;48.534;-3.036;2023-12-29T05:38:46;17.70;62.90
75719;DHT22;64340;48.534;-3.036;2023-12-29T05:41:15;17.60;62.90
75719;DHT22;64340;48.534;-3.036;2023-12-29T05:43:41;17.60;62.90
75719;DHT22;64340;48.534;-3.036;2023-12-29T05:46:10;17.60;62.90
75719;DHT22;64340;48.534;-3.036;2023-12-29T05:48:37;17.60;63.00
75719;DHT22;64340;48.534;-3.036;2023-12-29T05:51:12;17.50;63.30
75719;DHT22;64340;48.534;-3.036;2023-12-29T05:53:41;17.50;63.20
75719;DHT22;64340;48.534;-3.036;2023-12-29T05:56:07;17.50;63.30
75719;DHT22;64340;48.534;-3.036;2023-12-29T05:58:33;17.60;63.40
75719;DHT22;64340;48.534;-3.036;2023-12-29T06:00:59;17.60;63.50
75719;DHT22;64340;48.534;-3.036;2023-12-29T06:03:26;17.60;63.40
75719;DHT22;64340;48.534;-3.036;2023-12-29T06:05:52;17.50;63.30
75719;DHT22;64340;48.534;-3.036;2023-12-29T06:08:18;17.50;63.40
75719;DHT22;64340;48.534;-3.036;2023-12-29T06:10:44;17.50;63.50
75719;DHT22;64340;48.534;-3.036;2023-12-29T06:13:10;17.50;63.70
75719;DHT22;64340;48.534;-3.036;2023-12-29T06:15:35;17.50;63.60
75719;DHT22;64340;48.534;-3.036;2023-12-29T06:18:02;17.50;64.10
75719;DHT22;64340;48.534;-3.036;2023-12-29T06:20:28;17.60;64.00
75719;DHT22;64340;48.534;-3.036;2023-12-29T06:22:55;17.60;64.00
75719;DHT22;64340;48.534;-3.036;2023-12-29T06:25:21;17.60;63.70
75719;DHT22;64340;48.534;-3.036;2023-12-29T06:27:47;17.50;63.90
75719;DHT22;64340;48.534;-3.036;2023-12-29T06:30:14;17.50;63.90
75719;DHT22;64340;48.534;-3.036;2023-12-29T06:32:40;17.50;64.00
75719;DHT22;64340;48.534;-3.036;2023-12-29T06:35:06;17.50;64.00
75719;DHT22;64340;48.534;-3.036;2023-12-29T06:37:32;17.50;64.10
75719;DHT22;64340;48.534;-3.036;2023-12-29T06:39:59;17.50;64.00
75719;DHT22;64340;48.534;-3.036;2023-12-29T06:42:24;17.50;63.90
75719;DHT22;64340;48.534;-3.036;2023-12-29T06:44:50;17.50;64.10
75719;DHT22;64340;48.534;-3.036;2023-12-29T06:47:16;17.50;64.90
75719;DHT22;64340;48.534;-3.036;2023-12-29T06:49:42;17.50;64.50
75719;DHT22;64340;48.534;-3.036;2023-12-29T06:52:08;17.50;64.60
75719;DHT22;64340;48.534;-3.036;2023-12-29T06:54:34;17.50;64.40
75719;DHT22;64340;48.534;-3.036;2023-12-29T06:57:00;17.50;64.40
75719;DHT22;64340;48.534;-3.036;2023-12-29T06:59:25;17.50;64.30
75719;DHT22;64340;48.534;-3.036;2023-12-29T07:01:51;17.50;64.40
75719;DHT22;64340;48.534;-3.036;2023-12-29T07:04:17;17.50;64.40
75719;DHT22;64340;48.534;-3.036;2023-12-29T07:06:43;17.50;64.50
75719;DHT22;64340;48.534;-3.036;2023-12-29T07:09:08;17.50;64.60
75719;DHT22;64340;48.534;-3.036;2023-12-29T07:11:35;17.50;64.50
75719;DHT22;64340;48.534;-3.036;2023-12-29T07:14:02;17.50;64.50
75719;DHT22;64340;48.534;-3.036;2023-12-29T07:16:27;17.50;64.50
75719;DHT22;64340;48.534;-3.036;2023-12-29T07:18:53;17.40;64.60
75719;DHT22;64340;48.534;-3.036;2023-12-29T07:21:19;17.40;64.50
75719;DHT22;64340;48.534;-3.036;2023-12-29T07:23:45;17.50;64.50
75719;DHT22;64340;48.534;-3.036;2023-12-29T07:26:10;17.40;64.50
75719;DHT22;64340;48.534;-3.036;2023-12-29T07:28:36;17.40;64.80
75719;DHT22;64340;48.534;-3.036;2023-12-29T07:31:02;17.40;64.50
75719;DHT22;64340;48.534;-3.036;2023-12-29T07:33:28;17.40;64.70
75719;DHT22;64340;48.534;-3.036;2023-12-29T07:35:54;17.40;64.70
75719;DHT22;64340;48.534;-3.036;2023-12-29T07:38:20;17.40;64.80
75719;DHT22;64340;48.534;-3.036;2023-12-29T07:40:46;17.40;64.60
75719;DHT22;64340;48.534;-3.036;2023-12-29T07:43:14;17.40;64.70
75719;DHT22;64340;48.534;-3.036;2023-12-29T07:45:39;17.40;64.80
75719;DHT22;64340;48.534;-3.036;2023-12-29T07:48:06;17.40;64.80
75719;DHT22;64340;48.534;-3.036;2023-12-29T07:50:32;17.40;64.90
75719;DHT22;64340;48.534;-3.036;2023-12-29T07:52:58;17.40;64.90
75719;DHT22;64340;48.534;-3.036;2023-12-29T07:55:31;17.40;64.90
75719;DHT22;64340;48.534;-3.036;2023-12-29T07:57:56;17.40;65.00
75719;DHT22;64340;48.534;-3.036;2023-12-29T08:00:22;17.30;65.00
75719;DHT22;64340;48.534;-3.036;2023-12-29T08:02:49;17.30;65.00
75719;DHT22;64340;48.534;-3.036;2023-12-29T08:05:15;17.30;65.00
75719;DHT22;64340;48.534;-3.036;2023-12-29T08:07:42;17.30;65.00
75719;DHT22;64340;48.534;-3.036;2023-12-29T08:10:09;17.30;65.10
75719;DHT22;64340;48.534;-3.036;2023-12-29T08:12:35;17.30;64.90
75719;DHT22;64340;48.534;-3.036;2023-12-29T08:15:01;17.30;65.00
75719;DHT22;64340;48.534;-3.036;2023-12-29T08:17:28;17.30;65.00
75719;DHT22;64340;48.534;-3.036;2023-12-29T08:19:54;17.30;65.00
75719;DHT22;64340;48.534;-3.036;2023-12-29T08:22:20;17.30;65.00
75719;DHT22;64340;48.534;-3.036;2023-12-29T08:24:46;17.30;64.90
75719;DHT22;64340;48.534;-3.036;2023-12-29T08:27:12;17.30;64.90
75719;DHT22;64340;48.534;-3.036;2023-12-29T08:29:38;17.20;64.90
75719;DHT22;64340;48.534;-3.036;2023-12-29T08:32:04;17.30;65.00
75719;DHT22;64340;48.534;-3.036;2023-12-29T08:34:30;17.20;64.90
75719;DHT22;64340;48.534;-3.036;2023-12-29T08:36:56;17.20;65.10
75719;DHT22;64340;48.534;-3.036;2023-12-29T08:39:22;17.20;64.90
75719;DHT22;64340;48.534;-3.036;2023-12-29T08:41:48;17.20;65.00
75719;DHT22;64340;48.534;-3.036;2023-12-29T08:44:17;17.20;65.00
75719;DHT22;64340;48.534;-3.036;2023-12-29T08:46:43;17.20;64.80
75719;DHT22;64340;48.534;-3.036;2023-12-29T08:49:08;17.20;65.00
75719;DHT22;64340;48.534;-3.036;2023-12-29T08:51:34;17.20;64.90
75719;DHT22;64340;48.534;-3.036;2023-12-29T08:54:00;17.20;65.00
75719;DHT22;64340;48.534;-3.036;2023-12-29T08:56:26;17.20;64.90
75719;DHT22;64340;48.534;-3.036;2023-12-29T08:58:53;17.20;65.00
75719;DHT22;64340;48.534;-3.036;2023-12-29T09:01:18;17.20;65.00
75719;DHT22;64340;48.534;-3.036;2023-12-29T09:03:45;17.20;64.90
75719;DHT22;64340;48.534;-3.036;2023-12-29T09:06:11;17.20;64.90
75719;DHT22;64340;48.534;-3.036;2023-12-29T09:08:37;17.20;64.90
75719;DHT22;64340;48.534;-3.036;2023-12-29T09:11:04;17.20;65.00
75719;DHT22;64340;48.534;-3.036;2023-12-29T09:13:29;17.20;65.00
75719;DHT22;64340;48.534;-3.036;2023-12-29T09:15:55;17.20;65.00
75719;DHT22;64340;48.534;-3.036;2023-12-29T09:18:21;17.20;65.00
75719;DHT22;64340;48.534;-3.036;2023-12-29T09:20:47;17.20;65.00
75719;DHT22;64340;48.534;-3.036;2023-12-29T09:23:13;17.20;65.00
75719;DHT22;64340;48.534;-3.036;2023-12-29T09:25:40;17.20;65.40
75719;DHT22;64340;48.534;-3.036;2023-12-29T09:28:06;17.40;65.70
75719;DHT22;64340;48.534;-3.036;2023-12-29T09:30:32;17.40;65.20
75719;DHT22;64340;48.534;-3.036;2023-12-29T09:32:58;17.00;65.00
75719;DHT22;64340;48.534;-3.036;2023-12-29T09:35:23;16.80;65.10
75719;DHT22;64340;48.534;-3.036;2023-12-29T09:37:49;16.80;65.60
75719;DHT22;64340;48.534;-3.036;2023-12-29T09:40:15;16.80;65.60
75719;DHT22;64340;48.534;-3.036;2023-12-29T09:42:43;16.60;65.80
75719;DHT22;64340;48.534;-3.036;2023-12-29T09:45:13;16.40;66.10
75719;DHT22;64340;48.534;-3.036;2023-12-29T09:47:40;16.40;66.40
75719;DHT22;64340;48.534;-3.036;2023-12-29T09:50:16;16.20;66.60
75719;DHT22;64340;48.534;-3.036;2023-12-29T09:52:42;16.20;66.80
75719;DHT22;64340;48.534;-3.036;2023-12-29T09:55:10;16.40;66.60
75719;DHT22;64340;48.534;-3.036;2023-12-29T09:57:37;16.40;66.70
75719;DHT22;64340;48.534;-3.036;2023-12-29T10:00:04;16.20;66.90
75719;DHT22;64340;48.534;-3.036;2023-12-29T10:02:30;15.80;67.50
75719;DHT22;64340;48.534;-3.036;2023-12-29T10:04:56;15.60;68.20
75719;DHT22;64340;48.534;-3.036;2023-12-29T10:07:25;15.50;68.60
75719;DHT22;64340;48.534;-3.036;2023-12-29T10:09:57;15.30;69.50
75719;DHT22;64340;48.534;-3.036;2023-12-29T10:12:24;15.30;69.70
75719;DHT22;64340;48.534;-3.036;2023-12-29T10:22:57;16.40;67.80
75719;DHT22;64340;48.534;-3.036;2023-12-29T10:25:27;16.80;66.70
75719;DHT22;64340;48.534;-3.036;2023-12-29T10:27:53;17.00;66.50
75719;DHT22;64340;48.534;-3.036;2023-12-29T10:30:19;17.20;65.90
75719;DHT22;64340;48.534;-3.036;2023-12-29T10:32:50;17.30;65.70
75719;DHT22;64340;48.534;-3.036;2023-12-29T10:35:16;17.50;65.70
75719;DHT22;64340;48.534;-3.036;2023-12-29T10:37:42;17.60;65.40
75719;DHT22;64340;48.534;-3.036;2023-12-29T10:40:08;17.70;65.20
75719;DHT22;64340;48.534;-3.036;2023-12-29T10:42:34;17.80;65.30
75719;DHT22;64340;48.534;-3.036;2023-12-29T10:45:18;18.00;65.00
75719;DHT22;64340;48.534;-3.036;2023-12-29T10:47:44;18.00;65.20
75719;DHT22;64340;48.534;-3.036;2023-12-29T10:50:10;18.00;66.10
75719;DHT22;64340;48.534;-3.036;2023-12-29T10:52:37;18.00;66.60
75719;DHT22;64340;48.534;-3.036;2023-12-29T10:55:08;18.10;66.70
75719;DHT22;64340;48.534;-3.036;2023-12-29T10:57:35;18.10;66.20
75719;DHT22;64340;48.534;-3.036;2023-12-29T11:00:02;18.20;66.20
75719;DHT22;64340;48.534;-3.036;2023-12-29T11:02:29;18.20;65.90
75719;DHT22;64340;48.534;-3.036;2023-12-29T11:05:05;18.30;65.90
75719;DHT22;64340;48.534;-3.036;2023-12-29T11:07:34;18.40;66.00
75719;DHT22;64340;48.534;-3.036;2023-12-29T11:10:03;18.40;65.70
75719;DHT22;64340;48.534;-3.036;2023-12-29T11:12:33;18.40;65.70
75719;DHT22;64340;48.534;-3.036;2023-12-29T11:15:04;18.40;65.50
75719;DHT22;64340;48.534;-3.036;2023-12-29T11:17:31;18.40;65.50
75719;DHT22;64340;48.534;-3.036;2023-12-29T11:20:02;18.40;65.40
75719;DHT22;64340;48.534;-3.036;2023-12-29T11:22:31;18.50;65.20
75719;DHT22;64340;48.534;-3.036;2023-12-29T11:24:58;18.70;64.60
75719;DHT22;64340;48.534;-3.036;2023-12-29T11:27:28;18.90;64.60
75719;DHT22;64340;48.534;-3.036;2023-12-29T11:29:58;19.00;64.30
75719;DHT22;64340;48.534;-3.036;2023-12-29T11:32:49;18.90;64.50
75719;DHT22;64340;48.534;-3.036;2023-12-29T11:35:27;18.90;64.40
75719;DHT22;64340;48.534;-3.036;2023-12-29T11:41:09;18.20;61.20
75719;DHT22;64340;48.534;-3.036;2023-12-29T11:43:36;18.00;62.00
75719;DHT22;64340;48.534;-3.036;2023-12-29T11:46:03;18.20;62.40
75719;DHT22;64340;48.534;-3.036;2023-12-29T11:48:54;18.60;62.70
75719;DHT22;64340;48.534;-3.036;2023-12-29T11:51:34;18.90;63.70
75719;DHT22;64340;48.534;-3.036;2023-12-29T11:54:01;19.00;63.70
75719;DHT22;64340;48.534;-3.036;2023-12-29T11:56:38;19.10;63.90
75719;DHT22;64340;48.534;-3.036;2023-12-29T11:59:18;19.20;63.70
75719;DHT22;64340;48.534;-3.036;2023-12-29T12:01:47;19.10;63.40
75719;DHT22;64340;48.534;-3.036;2023-12-29T12:07:05;19.20;63.80
75719;DHT22;64340;48.534;-3.036;2023-12-29T12:09:33;19.20;63.90
75719;DHT22;64340;48.534;-3.036;2023-12-29T12:12:03;19.30;63.40
75719;DHT22;64340;48.534;-3.036;2023-12-29T12:14:47;19.30;63.50
75719;DHT22;64340;48.534;-3.036;2023-12-29T12:17:33;19.40;63.60
75719;DHT22;64340;48.534;-3.036;2023-12-29T12:20:09;19.60;63.40
75719;DHT22;64340;48.534;-3.036;2023-12-29T12:22:36;19.70;63.10
75719;DHT22;64340;48.534;-3.036;2023-12-29T12:25:03;19.70;62.50
75719;DHT22;64340;48.534;-3.036;2023-12-29T12:27:30;19.60;62.70
75719;DHT22;64340;48.534;-3.036;2023-12-29T12:29:58;19.60;62.90
75719;DHT22;64340;48.534;-3.036;2023-12-29T12:32:28;19.50;62.60
75719;DHT22;64340;48.534;-3.036;2023-12-29T12:34:55;19.50;62.60
75719;DHT22;64340;48.534;-3.036;2023-12-29T12:37:28;19.60;62.50
75719;DHT22;64340;48.534;-3.036;2023-12-29T12:39:54;19.50;62.80
75719;DHT22;64340;48.534;-3.036;2023-12-29T12:42:21;19.70;62.90
75719;DHT22;64340;48.534;-3.036;2023-12-29T12:45:12;19.70;62.60
75719;DHT22;64340;48.534;-3.036;2023-12-29T12:47:45;19.60;62.80
75719;DHT22;64340;48.534;-3.036;2023-12-29T12:50:12;19.60;62.70
75719;DHT22;64340;48.534;-3.036;2023-12-29T12:52:38;19.50;62.50
75719;DHT22;64340;48.534;-3.036;2023-12-29T12:55:06;19.50;62.30
75719;DHT22;64340;48.534;-3.036;2023-12-29T12:57:33;19.60;62.30
75719;DHT22;64340;48.534;-3.036;2023-12-29T13:00:01;19.60;62.00
75719;DHT22;64340;48.534;-3.036;2023-12-29T13:02:28;19.50;62.00
75719;DHT22;64340;48.534;-3.036;2023-12-29T13:04:55;19.60;61.80
75719;DHT22;64340;48.534;-3.036;2023-12-29T13:07:21;19.60;61.70
75719;DHT22;64340;48.534;-3.036;2023-12-29T13:09:48;19.60;61.40
75719;DHT22;64340;48.534;-3.036;2023-12-29T13:12:16;19.60;61.60
75719;DHT22;64340;48.534;-3.036;2023-12-29T13:14:43;19.60;61.70
75719;DHT22;64340;48.534;-3.036;2023-12-29T13:17:10;19.60;60.80
75719;DHT22;64340;48.534;-3.036;2023-12-29T13:19:37;19.50;60.70
75719;DHT22;64340;48.534;-3.036;2023-12-29T13:22:10;19.50;60.30
75719;DHT22;64340;48.534;-3.036;2023-12-29T13:24:43;19.50;60.50
75719;DHT22;64340;48.534;-3.036;2023-12-29T13:27:11;19.50;60.20
75719;DHT22;64340;48.534;-3.036;2023-12-29T13:29:38;19.50;60.70
75719;DHT22;64340;48.534;-3.036;2023-12-29T13:32:26;19.50;60.00
75719;DHT22;64340;48.534;-3.036;2023-12-29T13:37:49;19.50;60.70
75719;DHT22;64340;48.534;-3.036;2023-12-29T13:40:21;19.50;60.30
75719;DHT22;64340;48.534;-3.036;2023-12-29T13:42:49;19.50;60.20
75719;DHT22;64340;48.534;-3.036;2023-12-29T13:45:17;19.40;59.90
75719;DHT22;64340;48.534;-3.036;2023-12-29T13:47:45;19.40;60.10
75719;DHT22;64340;48.534;-3.036;2023-12-29T13:50:11;19.40;60.20
75719;DHT22;64340;48.534;-3.036;2023-12-29T13:52:38;19.50;60.20
75719;DHT22;64340;48.534;-3.036;2023-12-29T13:55:05;19.50;60.50
75719;DHT22;64340;48.534;-3.036;2023-12-29T13:57:33;19.40;60.30
75719;DHT22;64340;48.534;-3.036;2023-12-29T14:00:18;19.40;59.90
75719;DHT22;64340;48.534;-3.036;2023-12-29T14:05:48;19.50;60.30
75719;DHT22;64340;48.534;-3.036;2023-12-29T14:11:13;19.40;59.70
75719;DHT22;64340;48.534;-3.036;2023-12-29T14:13:43;19.40;59.40
75719;DHT22;64340;48.534;-3.036;2023-12-29T14:16:09;19.30;59.40
75719;DHT22;64340;48.534;-3.036;2023-12-29T14:18:48;19.20;59.10
75719;DHT22;64340;48.534;-3.036;2023-12-29T14:21:28;19.20;59.20
75719;DHT22;64340;48.534;-3.036;2023-12-29T14:24:08;19.30;59.30
75719;DHT22;64340;48.534;-3.036;2023-12-29T14:29:20;19.40;59.50
75719;DHT22;64340;48.534;-3.036;2023-12-29T14:31:46;19.50;59.30
75719;DHT22;64340;48.534;-3.036;2023-12-29T14:34:17;19.50;59.10
75719;DHT22;64340;48.534;-3.036;2023-12-29T14:36:44;19.60;59.30
75719;DHT22;64340;48.534;-3.036;2023-12-29T14:39:11;19.70;58.90
75719;DHT22;64340;48.534;-3.036;2023-12-29T14:41:42;19.80;58.80
75719;DHT22;64340;48.534;-3.036;2023-12-29T14:44:08;19.90;58.60
75719;DHT22;64340;48.534;-3.036;2023-12-29T14:46:37;20.00;58.70
75719;DHT22;64340;48.534;-3.036;2023-12-29T14:49:06;20.30;58.40
75719;DHT22;64340;48.534;-3.036;2023-12-29T14:51:34;20.50;58.40
75719;DHT22;64340;48.534;-3.036;2023-12-29T14:54:06;20.70;58.00
75719;DHT22;64340;48.534;-3.036;2023-12-29T14:56:32;20.80;57.50
75719;DHT22;64340;48.534;-3.036;2023-12-29T14:58:58;20.80;58.00
75719;DHT22;64340;48.534;-3.036;2023-12-29T15:01:24;20.90;57.80
75719;DHT22;64340;48.534;-3.036;2023-12-29T15:03:54;20.90;58.00
75719;DHT22;64340;48.534;-3.036;2023-12-29T15:06:21;20.90;58.10
75719;DHT22;64340;48.534;-3.036;2023-12-29T15:08:48;21.00;58.00
75719;DHT22;64340;48.534;-3.036;2023-12-29T15:11:17;21.00;58.20
75719;DHT22;64340;48.534;-3.036;2023-12-29T15:13:44;21.00;58.20
75719;DHT22;64340;48.534;-3.036;2023-12-29T15:16:10;21.00;58.20
75719;DHT22;64340;48.534;-3.036;2023-12-29T15:19:00;21.00;58.20
75719;DHT22;64340;48.534;-3.036;2023-12-29T15:21:29;21.00;58.40
75719;DHT22;64340;48.534;-3.036;2023-12-29T15:23:56;21.00;58.70
75719;DHT22;64340;48.534;-3.036;2023-12-29T15:26:23;20.90;58.70
75719;DHT22;64340;48.534;-3.036;2023-12-29T15:28:49;20.30;57.60
75719;DHT22;64340;48.534;-3.036;2023-12-29T15:31:16;20.50;59.20
75719;DHT22;64340;48.534;-3.036;2023-12-29T15:33:42;20.70;59.00
75719;DHT22;64340;48.534;-3.036;2023-12-29T15:36:12;20.80;59.20
75719;DHT22;64340;48.534;-3.036;2023-12-29T15:38:40;20.80;59.80
75719;DHT22;64340;48.534;-3.036;2023-12-29T15:41:12;20.70;59.20
75719;DHT22;64340;48.534;-3.036;2023-12-29T15:43:43;20.80;59.60
75719;DHT22;64340;48.534;-3.036;2023-12-29T15:46:18;20.70;59.50